Terminal Aerodrome Forecast
Issued by NWS Sterling, VA

Current Version | Previous Version | Graphics & Text | Print | Product List | Glossary On
Versions: 1 2 3 4 5 6 7 8 9 10 11 12 13 14 15 16 17 18 19 20 21 22 23 24 25 26 27
504
FTUS41 KLWX 300858 AAC
TAFIAD
TAF AMD
KIAD 300858Z 3009/0112 VRB03KT 1/4SM FG OVC002
     FM301030 16004KT 1/2SM -RA FG OVC003
     FM301600 19012G19KT 5SM BR OVC008
     FM302100 19011KT 2SM SHRA OVC010
     FM010000 21010KT 2SM -SHRA OVC008
     FM010500 26007KT 6SM -SHRA BKN035
     FM010700 27009KT P6SM SCT060=

USA.gov is the U.S. government's official web portal to all federal, state and local government web resources and services.